Relevés horaires Bierset (Belgique)


Relevés horaires à Bierset - Jeudi 15 Juin 2023
Heure UTC1 Température [°C] Vent [km/h] Hum. [%] Pres.4 [hPa] Visi. [Km] Nébu. [octa] Préc.5 [mm] Cond.
2m. Res. Ros. Dir.2 Vit. Moy. Raf.3
23:00 17.6 17.6 8.0 N 1.9 3.7 5.6 53 1019.1(0.6/3h) 30 2/8 -- --
22:00 18.6 18.6 8.0 N 3.7 3.7 5.6 50 1019(0.8/3h) 30 2/8 -- --
21:00 19.7 19.7 7.7 N 1.9 5.6 9.3 46 1018.7(0.6/3h) 30 2/8 -- --
20:00 21.2 21.2 7.5 N 3.7 5.6 5.6 41 1018.2(0.5/3h) 30 2/8 -- --
19:00 22.4 22.4 6.7 NNE 5.6 5.6 9.3 36 1017.9(0.0/3h) 30 1/8 -- --
18:00 24.1 24.1 6.7 N 3.7 13.0 18.5 33 1017.7(-0.4/3h) 30 1/8 0/12h
--
17:00 24.7 24.7 5.9 NE 5.6 7.4 14.8 30 1017.5(-0.7/3h) 30 1/8 -- --
16:00 25.4 25.4 5.0 NE 7.4 9.3 14.8 27 1017.7(-0.6/3h) 30 1/8 -- --
15:00 25.9 25.9 5.1 N 7.4 13.0 18.5 26 1018(-0.6/3h) 30 2/8 -- --
14:00 25.4 25.4 4.5 NNE 7.4 13.0 16.7 26 1018.1(-0.6/3h) 30 2/8 -- --
13:00 25.8 25.8 5.2 NNE 9.3 13.0 18.5 27 1018.3(-0.6/3h) 30 2/8 -- --
12:00 24.6 24.6 6.1 ENE 9.3 11.1 20.4 30 1018.7(-0.4/3h) 30 2/8 0/6h
--
11:00 24.6 24.6 5.5 E 9.3 11.1 16.7 29 1018.8(0.2/3h) 30 1/8 -- --
10:00 23.5 23.5 7.5 NE 7.4 9.3 14.8 36 1019(0.1/3h) 30 1/8 -- --
09:00 22.4 22.4 8.5 ENE 5.6 7.4 20.4 41 1019.2(0.2/3h) 30 0/8 -- --
08:00 21.5 21.5 8.4 E 3.7 5.6 11.1 43 1019.2(0.5/3h) 30 0/8 -- --
07:00 19.6 19.6 8.4 E 5.6 5.6 18.5 48 1019.1(0.5/3h) 30 0/8 -- --
06:00 17.4 17.4 8.7 ESE 3.7 7.4 18.5 57 1019.3(0.9/3h) 30 0/8 0/12h
--
05:00 15.8 15.8 7.3 E 3.7 3.7 7.4 57 1019.2(0.6/3h) 30 1/8 -- --
04:00 14.3 14.3 6.8 ENE 3.7 3.7 11.1 61 1019(0.4/3h) 30 1/8 -- --
03:00 15.4 15.4 6.4 NNO 1.9 7.4 18.5 55 1018.6(0.2/3h) 30 1/8 -- --
02:00 15.9 15.9 6.1 SE 3.7 5.6 9.3 52 1018.5(0.3/3h) 30 1/8 -- --
01:00 17.2 17.2 6.0 E 5.6 7.4 18.5 48 1018.4(0.4/3h) 30 1/8 -- --
00:00 17.9 17.9 6.0 E 5.6 13.0 20.4 46 1018.2(0.6/3h) 30 1/8 0/6h
0/24h
--

1 Coordinated Universal Time. Actuellement il est 02:00 locale et 00:00 UTC.

2 Le vent souffle depuis la direction indiquée vers la direction oposée.

3 Les rafales max. sont disponible 40 min après l'heure du relevé.

4 Pour les stations d'altitude (plus de 600m) le géopotentiel du niveau le plus proche de la pression obligatoire est indiqué.

5 Les stations disposant d'un diffuseur peuvent indiquer "trace". Cela signifie que des précipitations ont touchés le sol mais que la quantité est inférieure à 0.1 mm.

Récapitulatif de la journée
Température [°C] Vent [km/h] Ensoleillement4 [h] Precipitations totale5 [mm] Pression [Hpa]
Min1 Max.2 Moy.3 Max. Min Max.
13.5 26.1 8 20.4 0 h 0 min 0 1017.5 1019.3

1 Température minimale relevée entre 18:00 UTC la veille et 18:00 UTC le jour donné.

2 Température maximale relevée entre 06:00 UTC le jour donné et 06:00 UTC le lendemain.

3 Vent moyen de la journée basé sur les relevés horaires.

4 Ensoleillement en heures relevé entre 06:00 UTC la veille et 06:00 UTC le jour donné.

5 Précipitations totales tombées entre 06:00 UTC la jour donné et 06:00 UTC le lendemain.

Graphiques horaires